Old Fort, Ohio
Current Conditions -  °F | °C
As of 6:33 AM on Tuesday 21 Oct 2014 (Local Time) from KPCW Reporting Station
Light Rain Light Rain  
Wind Chill: 50°   Ceiling: 2400
Heat Index: 50°   Visibility: 9mi
Dew Point: 45°   Wind: 9mph
Humidity: 82%   Direction: 10°N
Pressure: 29.9"   Gusts: NA
Location:  41.24°N, 83.15°W
Report Text: KPCW 211033Z AUTO 01008KT 9SM -RA SCT017 OVC024 10/07 A2990 RMK AO2 RAB05
Loading
Personal Weather Stations






























Interactive Weather Map
Tropical Storm Tracking
New forecast layout! Learn more

10-Day Weather Forecast

Advertisements
Track Severe Weather on mobile